Accueil
METAR-TAF:

METAR-TAF

Aéroports :

Gaylord Regional Airport (Otsego County Airport)

Gaylord, Michigan, États-Unis

latitude: 45-00-59N, longitude: 084-41-20W, altitude: 404 m

Observation

Le bulletin a été fait il y a 1 heure et 1 minutes, à 07:53 UTC
Vent 3 kt de direction variable
Température 12°C
Humidité 94%
Pression 1009 hPa
Visibilité: 1.6 km
Ciel couvert à une hauteur de 200 ft
brume

METAR: KGLR 210753Z AUTO VRB03KT 1SM BR OVC002 12/11 A2981 RMK AO2 RAE04 SLP096 P0000 T01220106

Heure: 04:54 (08:54 UTC)


TAF: absent

Observations et prévisions météorologiques de plus de 4000 aéroports (messages METAR et TAF).

Les stations disponibles sont représentées par des disques jaunes et rouges sur la carte.

Passer la souris dessus pour voir le nom de la station.

Cliquer dessus pour voir les observations et prévisions météorologiques.

Pour changer de carte: cliquez sur les boutons verts avec une croix noire pour zoomer, sur le bouton vert avec un tiret pour effectuer un zoom arrière, ou sur les flèches vertes pour les cartes adjacentes.


METAR-TAF: